createdAt,value
2022-08-11T00:00:00.684Z,0.00
2022-08-11T00:01:00.693Z,0.00
2022-08-11T00:02:00.660Z,0.00
2022-08-11T00:03:00.688Z,0.00
2022-08-11T00:04:00.634Z,0.00
2022-08-11T00:05:00.627Z,0.00
2022-08-11T00:06:00.615Z,0.00
2022-08-11T00:07:00.621Z,0.00
2022-08-11T00:08:00.588Z,0.00
2022-08-11T00:09:01.603Z,0.00
2022-08-11T00:10:00.571Z,0.00
2022-08-11T00:11:00.566Z,0.00
2022-08-11T00:12:00.561Z,0.00
2022-08-11T00:13:00.569Z,0.00
2022-08-11T00:14:00.570Z,0.00
2022-08-11T00:15:00.541Z,0.00
2022-08-11T00:16:00.538Z,0.00
2022-08-11T00:17:00.522Z,0.00
2022-08-11T00:18:00.523Z,0.00
2022-08-11T00:19:00.489Z,0.00
2022-08-11T00:20:15.230Z,0.00
2022-08-11T00:21:00.541Z,0.00
2022-08-11T00:22:05.163Z,0.00
2022-08-11T00:23:01.456Z,0.00
2022-08-11T00:24:00.467Z,0.00
2022-08-11T00:25:02.699Z,0.00
2022-08-11T00:26:01.414Z,0.00
2022-08-11T00:27:00.408Z,0.00
2022-08-11T00:28:00.399Z,0.00
2022-08-11T00:29:00.421Z,0.00
2022-08-11T00:30:00.375Z,0.00
2022-08-11T00:31:00.375Z,0.00
2022-08-11T00:32:00.355Z,0.00
2022-08-11T00:33:00.359Z,0.00
2022-08-11T00:34:00.341Z,0.00
2022-08-11T00:35:51.012Z,0.00
2022-08-11T00:36:01.350Z,0.00
2022-08-11T00:37:00.307Z,4.00
2022-08-11T00:38:00.296Z,4.00
2022-08-11T00:39:00.361Z,4.00
2022-08-11T00:40:00.352Z,0.00
2022-08-11T00:41:32.193Z,0.00
2022-08-11T00:42:00.251Z,0.00
2022-08-11T00:43:00.247Z,0.00
2022-08-11T00:44:00.240Z,0.00
2022-08-11T00:45:00.230Z,0.00
2022-08-11T00:46:00.241Z,0.00
2022-08-11T00:47:00.198Z,0.00
2022-08-11T00:48:01.227Z,0.00
2022-08-11T00:49:00.188Z,0.00
2022-08-11T00:50:00.186Z,0.00
2022-08-11T00:51:00.162Z,0.00
2022-08-11T00:52:05.842Z,0.00
2022-08-11T00:53:01.155Z,0.00
2022-08-11T00:54:00.139Z,0.00
2022-08-11T00:55:00.127Z,0.00
2022-08-11T00:56:00.130Z,0.00
2022-08-11T00:57:00.115Z,0.00
2022-08-11T00:58:00.128Z,0.00
2022-08-11T00:59:00.083Z,0.00
2022-08-11T01:00:00.077Z,0.00
2022-08-11T01:01:00.117Z,0.00
2022-08-11T01:02:00.080Z,0.00
2022-08-11T01:03:00.088Z,0.00
2022-08-11T01:04:00.063Z,0.00
2022-08-11T01:05:00.018Z,0.00
2022-08-11T01:06:00.021Z,0.00
2022-08-11T01:07:00.009Z,0.00
2022-08-11T01:08:03.366Z,0.00
2022-08-11T01:08:59.992Z,0.00
2022-08-11T01:10:03.758Z,0.00
2022-08-11T01:11:01.982Z,0.00
2022-08-11T01:11:59.958Z,0.00
2022-08-11T01:12:59.969Z,0.00
2022-08-11T01:13:59.919Z,0.00
2022-08-11T01:15:00.934Z,0.00
2022-08-11T01:15:59.939Z,0.00
2022-08-11T01:16:59.908Z,0.00
2022-08-11T01:17:59.920Z,0.00
2022-08-11T01:18:59.885Z,0.00
2022-08-11T01:20:45.137Z,0.00
2022-08-11T01:21:00.862Z,0.00
2022-08-11T01:21:59.862Z,0.00
2022-08-11T01:22:59.890Z,0.00
2022-08-11T01:23:59.828Z,0.00
2022-08-11T01:24:59.843Z,0.00
2022-08-11T01:25:59.846Z,0.00
2022-08-11T01:26:59.801Z,0.00
2022-08-11T01:27:59.807Z,0.00
2022-08-11T01:28:59.780Z,0.00
2022-08-11T01:29:59.777Z,0.00
2022-08-11T01:30:59.812Z,0.00
2022-08-11T01:31:59.758Z,0.00
2022-08-11T01:32:59.772Z,0.00
2022-08-11T01:33:59.729Z,0.00
2022-08-11T01:34:59.719Z,0.00
2022-08-11T01:35:59.703Z,0.00
2022-08-11T01:36:59.718Z,0.00
2022-08-11T01:37:59.714Z,0.00
2022-08-11T01:38:59.683Z,0.00
2022-08-11T01:39:59.705Z,0.00
2022-08-11T01:40:59.673Z,0.00
2022-08-11T01:41:59.679Z,0.00
2022-08-11T01:42:59.643Z,0.00
2022-08-11T01:43:59.664Z,0.00
2022-08-11T01:44:59.676Z,0.00
2022-08-11T01:45:59.623Z,0.00
2022-08-11T01:46:59.603Z,0.00
2022-08-11T01:47:59.587Z,0.00
2022-08-11T01:48:59.604Z,0.00
2022-08-11T01:50:09.737Z,0.00
2022-08-11T01:50:59.574Z,0.00
2022-08-11T01:52:00.552Z,0.00
2022-08-11T01:52:59.559Z,0.00
2022-08-11T01:53:59.526Z,0.00
2022-08-11T01:54:59.510Z,0.00
2022-08-11T01:55:59.556Z,0.00
2022-08-11T01:56:59.496Z,0.00
2022-08-11T01:57:59.486Z,0.00
2022-08-11T01:58:59.502Z,0.00
2022-08-11T01:59:59.477Z,0.00
2022-08-11T02:00:59.511Z,0.00
2022-08-11T02:01:59.487Z,0.00
2022-08-11T02:02:59.453Z,0.00
2022-08-11T02:03:59.436Z,0.00
2022-08-11T02:04:59.428Z,0.00
2022-08-11T02:05:59.439Z,0.00
2022-08-11T02:06:59.428Z,0.00
2022-08-11T02:07:59.401Z,0.00
2022-08-11T02:08:59.372Z,0.00
2022-08-11T02:09:59.368Z,0.00
2022-08-11T02:10:59.368Z,0.00
2022-08-11T02:11:59.356Z,0.00
2022-08-11T02:12:59.367Z,0.00
2022-08-11T02:13:59.314Z,0.00
2022-08-11T02:15:05.095Z,0.00
2022-08-11T02:15:59.314Z,0.00
2022-08-11T02:16:59.311Z,0.00
2022-08-11T02:17:59.321Z,0.00
2022-08-11T02:18:59.267Z,0.00
2022-08-11T02:19:59.298Z,0.00
2022-08-11T02:20:59.264Z,0.00
2022-08-11T02:21:59.257Z,0.00
2022-08-11T02:22:59.233Z,0.00
2022-08-11T02:24:05.254Z,0.00
2022-08-11T02:25:00.242Z,0.00
2022-08-11T02:25:59.204Z,0.00
2022-08-11T02:26:59.195Z,0.00
2022-08-11T02:27:59.247Z,0.00
2022-08-11T02:28:59.177Z,0.00
2022-08-11T02:29:59.178Z,0.00
2022-08-11T02:30:59.171Z,0.00
2022-08-11T02:32:14.832Z,0.00
2022-08-11T02:33:01.171Z,0.00
2022-08-11T02:33:59.140Z,0.00
2022-08-11T02:34:59.827Z,0.00
2022-08-11T02:35:59.112Z,0.00
2022-08-11T02:36:59.115Z,0.00
2022-08-11T02:37:59.110Z,0.00
2022-08-11T02:38:59.089Z,0.00
2022-08-11T02:39:59.071Z,0.00
2022-08-11T02:40:59.070Z,0.00
2022-08-11T02:41:59.072Z,0.00
2022-08-11T02:42:59.068Z,0.00
2022-08-11T02:43:59.023Z,0.00
2022-08-11T02:44:59.026Z,0.00
2022-08-11T02:45:59.002Z,0.00
2022-08-11T02:46:59.004Z,0.00
2022-08-11T02:47:59.005Z,0.00
2022-08-11T02:48:58.990Z,0.00
2022-08-11T02:50:02.770Z,0.00
2022-08-11T02:50:59.008Z,0.00
2022-08-11T02:51:58.955Z,0.00
2022-08-11T02:52:58.946Z,0.00
2022-08-11T02:53:58.951Z,0.00
2022-08-11T02:54:58.947Z,0.00
2022-08-11T02:55:58.938Z,0.00
2022-08-11T02:56:58.888Z,0.00
2022-08-11T02:57:58.902Z,0.00
2022-08-11T02:58:58.895Z,0.00
2022-08-11T02:59:58.899Z,0.00
2022-08-11T03:00:58.868Z,0.00
2022-08-11T03:02:00.721Z,0.00
2022-08-11T03:02:58.845Z,0.00
2022-08-11T03:03:58.842Z,0.00
2022-08-11T03:04:58.803Z,0.00
2022-08-11T03:05:58.837Z,0.00
2022-08-11T03:06:58.786Z,0.00
2022-08-11T03:07:58.808Z,0.00
2022-08-11T03:08:58.866Z,0.00
2022-08-11T03:09:58.779Z,0.00
2022-08-11T03:10:58.789Z,0.00
2022-08-11T03:11:58.761Z,0.00
2022-08-11T03:12:58.750Z,4.00
2022-08-11T03:13:58.753Z,4.00
2022-08-11T03:14:58.726Z,0.00
2022-08-11T03:15:58.719Z,0.00
2022-08-11T03:16:58.721Z,4.00
2022-08-11T03:17:58.716Z,4.00
2022-08-11T03:18:58.683Z,0.00
2022-08-11T03:19:58.677Z,4.00
2022-08-11T03:20:58.685Z,4.00
2022-08-11T03:22:03.432Z,4.00
2022-08-11T03:22:59.631Z,4.00
2022-08-11T03:23:58.648Z,4.00
2022-08-11T03:24:58.614Z,4.00
2022-08-11T03:25:58.634Z,8.00
2022-08-11T03:26:58.595Z,8.00
2022-08-11T03:27:58.579Z,8.00
2022-08-11T03:28:58.568Z,12.00
2022-08-11T03:29:58.617Z,12.00
2022-08-11T03:30:58.571Z,12.00
2022-08-11T03:31:58.551Z,20.00
2022-08-11T03:32:58.536Z,20.00
2022-08-11T03:34:01.540Z,24.00
2022-08-11T03:35:00.547Z,24.00
2022-08-11T03:35:58.502Z,32.00
2022-08-11T03:37:15.971Z,36.00
2022-08-11T03:37:59.501Z,44.00
2022-08-11T03:38:58.475Z,48.00
2022-08-11T03:39:58.522Z,56.00
2022-08-11T03:40:58.489Z,64.00
2022-08-11T03:42:04.201Z,72.00
2022-08-11T03:42:59.436Z,84.00
2022-08-11T03:43:58.943Z,96.00
2022-08-11T03:44:58.416Z,108.00
2022-08-11T03:45:58.397Z,124.00
2022-08-11T03:46:58.409Z,136.00
2022-08-11T03:47:58.400Z,152.00
2022-08-11T03:48:58.395Z,172.00
2022-08-11T03:49:58.372Z,192.00
2022-08-11T03:50:58.369Z,212.00
2022-08-11T03:51:58.336Z,240.00
2022-08-11T03:52:58.358Z,260.00
2022-08-11T03:53:58.329Z,288.00
2022-08-11T03:54:58.306Z,316.00
2022-08-11T03:55:58.313Z,348.00
2022-08-11T03:56:58.300Z,380.00
2022-08-11T03:57:58.317Z,408.00
2022-08-11T03:58:58.323Z,448.00
2022-08-11T03:59:58.275Z,480.00
2022-08-11T04:00:58.269Z,520.00
2022-08-11T04:01:58.280Z,560.00
2022-08-11T04:02:58.252Z,600.00
2022-08-11T04:03:58.250Z,644.00
2022-08-11T04:04:58.212Z,696.00
2022-08-11T04:05:58.210Z,744.00
2022-08-11T04:06:58.196Z,804.00
2022-08-11T04:07:58.181Z,864.00
2022-08-11T04:08:58.207Z,928.00
2022-08-11T04:09:58.173Z,996.00
2022-08-11T04:10:59.635Z,1068.00
2022-08-11T04:11:58.132Z,1144.00
2022-08-11T04:12:58.141Z,1228.00
2022-08-11T04:13:58.128Z,1316.00
2022-08-11T04:14:58.127Z,1408.00
2022-08-11T04:15:58.097Z,1504.00
2022-08-11T04:16:58.094Z,1604.00
2022-08-11T04:17:58.071Z,1716.00
2022-08-11T04:18:58.082Z,1828.00
2022-08-11T04:19:58.077Z,1944.00
2022-08-11T04:20:58.099Z,2076.00
2022-08-11T04:21:58.054Z,2204.00
2022-08-11T04:22:58.032Z,2336.00
2022-08-11T04:24:36.385Z,2480.00
2022-08-11T04:24:58.995Z,2624.00
2022-08-11T04:25:58.929Z,2776.00
2022-08-11T04:26:57.996Z,2936.00
2022-08-11T04:27:57.984Z,3100.00
2022-08-11T04:28:58.024Z,3384.00
2022-08-11T04:30:05.164Z,4380.00
2022-08-11T04:30:57.965Z,5688.00
2022-08-11T04:31:57.937Z,7084.00
2022-08-11T04:32:57.935Z,7800.00
2022-08-11T04:33:57.914Z,8576.00
2022-08-11T04:34:57.915Z,9312.00
2022-08-11T04:35:57.906Z,9856.00
2022-08-11T04:36:57.874Z,10624.00
2022-08-11T04:37:57.902Z,12128.00
2022-08-11T04:38:57.865Z,12480.00
2022-08-11T04:39:57.867Z,12736.00
2022-08-11T04:40:57.836Z,13248.00
2022-08-11T04:41:57.837Z,14272.00
2022-08-11T04:42:57.845Z,14624.00
2022-08-11T04:44:05.861Z,15808.00
2022-08-11T04:44:58.804Z,16512.00
2022-08-11T04:45:57.820Z,17152.00
2022-08-11T04:46:57.785Z,18784.00
2022-08-11T04:48:03.705Z,20064.00
2022-08-11T04:48:58.770Z,21152.00
2022-08-11T04:49:57.772Z,21888.00
2022-08-11T04:51:08.741Z,22976.00
2022-08-11T04:51:58.746Z,23936.00
2022-08-11T04:52:57.734Z,25088.00
2022-08-11T04:53:57.715Z,25376.00
2022-08-11T04:54:57.726Z,26560.00
2022-08-11T04:55:57.703Z,26848.00
2022-08-11T04:56:57.685Z,27840.00
2022-08-11T04:57:57.687Z,29088.00
2022-08-11T04:58:57.672Z,29984.00
2022-08-11T04:59:57.698Z,30976.00
2022-08-11T05:00:57.636Z,31584.00
2022-08-11T05:01:58.728Z,32128.00
2022-08-11T05:02:57.627Z,33248.00
2022-08-11T05:03:57.619Z,33984.00
2022-08-11T05:04:57.616Z,34336.00
2022-08-11T05:05:57.656Z,35104.00
2022-08-11T05:06:57.588Z,35936.00
2022-08-11T05:07:57.573Z,35936.00
2022-08-11T05:08:57.564Z,36576.00
2022-08-11T05:09:57.538Z,36672.00
2022-08-11T05:10:57.568Z,37024.00
2022-08-11T05:11:57.872Z,37472.00
2022-08-11T05:12:57.533Z,37408.00
2022-08-11T05:13:57.511Z,38208.00
2022-08-11T05:14:57.529Z,40704.00
2022-08-11T05:15:57.518Z,41440.00
2022-08-11T05:16:57.495Z,42016.00
2022-08-11T05:17:57.499Z,42880.00
2022-08-11T05:18:57.482Z,43840.00
2022-08-11T05:19:57.471Z,44704.00
2022-08-11T05:20:58.819Z,45152.00
2022-08-11T05:21:57.487Z,46240.00
2022-08-11T05:22:57.427Z,47232.00
2022-08-11T05:23:57.442Z,48096.00
2022-08-11T05:24:57.401Z,48224.00
2022-08-11T05:26:08.928Z,49600.00
2022-08-11T05:26:58.389Z,49408.00
2022-08-11T05:27:57.382Z,50592.00
2022-08-11T05:28:57.398Z,51808.00
2022-08-11T05:29:57.394Z,51424.00
2022-08-11T05:30:57.352Z,51968.00
2022-08-11T05:31:57.353Z,53344.00
2022-08-11T05:33:01.736Z,55232.00
2022-08-11T05:33:58.343Z,55296.00
2022-08-11T05:34:57.337Z,54912.00
2022-08-11T05:36:00.920Z,56000.00
2022-08-11T05:37:17.160Z,57216.00
2022-08-11T05:37:58.326Z,58048.00
2022-08-11T05:38:57.268Z,57312.00
2022-08-11T05:39:57.311Z,58080.00
2022-08-11T05:41:00.146Z,59936.00
2022-08-11T05:41:57.253Z,61760.00
2022-08-11T05:42:57.247Z,63744.00
2022-08-11T05:44:21.076Z,64480.00
2022-08-11T05:44:58.220Z,64224.00
2022-08-11T05:46:03.617Z,64416.00
2022-08-11T05:46:58.197Z,65632.00
2022-08-11T05:47:57.190Z,66528.00
2022-08-11T05:48:57.212Z,64800.00
2022-08-11T05:49:58.019Z,64672.00
2022-08-11T05:50:57.166Z,64864.00
2022-08-11T05:52:05.880Z,64960.00
2022-08-11T05:52:58.140Z,64640.00
2022-08-11T05:53:57.123Z,64320.00
2022-08-11T05:54:57.129Z,65472.00
2022-08-11T05:56:03.117Z,66720.00
2022-08-11T05:56:58.156Z,68384.00
2022-08-11T05:57:57.098Z,67936.00
2022-08-11T05:58:57.104Z,68864.00
2022-08-11T05:59:57.085Z,69664.00
2022-08-11T06:00:57.120Z,69856.00
2022-08-11T06:01:57.203Z,70592.00
2022-08-11T06:02:57.074Z,69920.00
2022-08-11T06:03:58.712Z,67360.00
2022-08-11T06:04:57.038Z,64992.00
2022-08-11T06:05:57.014Z,63296.00
2022-08-11T06:06:57.031Z,63296.00
2022-08-11T06:07:57.427Z,62624.00
2022-08-11T06:08:58.050Z,64608.00
2022-08-11T06:09:57.059Z,69408.00
2022-08-11T06:10:56.967Z,71168.00
2022-08-11T06:11:56.969Z,69248.00
2022-08-11T06:12:56.965Z,68928.00
2022-08-11T06:13:56.968Z,70816.00
2022-08-11T06:14:56.966Z,71424.00
2022-08-11T06:15:56.943Z,70560.00
2022-08-11T06:16:56.923Z,71360.00
2022-08-11T06:17:56.919Z,70944.00
2022-08-11T06:18:56.895Z,69856.00
2022-08-11T06:19:56.881Z,69024.00
2022-08-11T06:20:57.914Z,69600.00
2022-08-11T06:21:56.885Z,71072.00
2022-08-11T06:22:56.863Z,71264.00
2022-08-11T06:23:56.868Z,71200.00
2022-08-11T06:24:56.854Z,71552.00
2022-08-11T06:25:56.866Z,71168.00
2022-08-11T06:27:13.722Z,71552.00
2022-08-11T06:27:58.837Z,71968.00
2022-08-11T06:28:56.804Z,71008.00
2022-08-11T06:29:56.813Z,69216.00
2022-08-11T06:30:56.812Z,67200.00
2022-08-11T06:31:56.789Z,66560.00
2022-08-11T06:32:56.779Z,65056.00
2022-08-11T06:33:56.796Z,63744.00
2022-08-11T06:34:56.770Z,64224.00
2022-08-11T06:35:57.779Z,65248.00
2022-08-11T06:36:56.740Z,65632.00
2022-08-11T06:37:58.794Z,64768.00
2022-08-11T06:38:56.732Z,62560.00
2022-08-11T06:39:56.788Z,63168.00
2022-08-11T06:40:56.736Z,68160.00
2022-08-11T06:42:28.681Z,72832.00
2022-08-11T06:43:17.696Z,74880.00
2022-08-11T06:43:57.595Z,74784.00
2022-08-11T06:44:56.683Z,74656.00
2022-08-11T06:45:56.719Z,74368.00
2022-08-11T06:46:56.686Z,73760.00
2022-08-11T06:47:56.661Z,73312.00
2022-08-11T06:48:56.639Z,72672.00
2022-08-11T06:49:56.636Z,71776.00
2022-08-11T06:50:56.647Z,69824.00
2022-08-11T06:51:56.718Z,69824.00
2022-08-11T06:52:57.609Z,70560.00
2022-08-11T06:54:04.437Z,71712.00
2022-08-11T06:54:57.630Z,72704.00
2022-08-11T06:55:58.955Z,71200.00
2022-08-11T06:57:26.254Z,69856.00
2022-08-11T06:57:58.565Z,69376.00
2022-08-11T06:58:56.551Z,70656.00
2022-08-11T06:59:56.548Z,71840.00
2022-08-11T07:00:56.527Z,73472.00
2022-08-11T07:01:56.625Z,71744.00
2022-08-11T07:02:56.530Z,70304.00
2022-08-11T07:03:56.508Z,70976.00
2022-08-11T07:04:56.507Z,70400.00
2022-08-11T07:05:59.133Z,70848.00
2022-08-11T07:06:56.498Z,71424.00
2022-08-11T07:07:56.462Z,72736.00
2022-08-11T07:08:56.484Z,72960.00
2022-08-11T07:09:56.448Z,73472.00
2022-08-11T07:10:56.447Z,73184.00
2022-08-11T07:11:56.441Z,73152.00
2022-08-11T07:12:56.433Z,72864.00
2022-08-11T07:13:56.432Z,71360.00
2022-08-11T07:15:00.047Z,70400.00
2022-08-11T07:16:12.979Z,69984.00
2022-08-11T07:16:57.408Z,68096.00
2022-08-11T07:17:56.373Z,66496.00
2022-08-11T07:18:57.400Z,68000.00
2022-08-11T07:19:56.789Z,71008.00
2022-08-11T07:20:59.968Z,72672.00
2022-08-11T07:22:02.999Z,72064.00
2022-08-11T07:22:56.355Z,73216.00
2022-08-11T07:23:56.358Z,73504.00
2022-08-11T07:24:59.737Z,71424.00
2022-08-11T07:25:56.315Z,69216.00
2022-08-11T07:26:56.321Z,70368.00
2022-08-11T07:27:56.292Z,71904.00
2022-08-11T07:28:56.277Z,72384.00
2022-08-11T07:29:56.304Z,70592.00
2022-08-11T07:30:56.298Z,66816.00
2022-08-11T07:31:56.290Z,61344.00
2022-08-11T07:32:56.259Z,61216.00
2022-08-11T07:34:08.408Z,64416.00
2022-08-11T07:34:57.256Z,68064.00
2022-08-11T07:35:56.257Z,70176.00
2022-08-11T07:36:56.226Z,70848.00
2022-08-11T07:38:02.303Z,69824.00
2022-08-11T07:38:56.223Z,69120.00
2022-08-11T07:39:56.272Z,70144.00
2022-08-11T07:40:56.188Z,69728.00
2022-08-11T07:41:56.204Z,68160.00
2022-08-11T07:42:56.164Z,68480.00
2022-08-11T07:43:56.150Z,64704.00
2022-08-11T07:44:56.143Z,62208.00
2022-08-11T07:45:56.136Z,62688.00
2022-08-11T07:46:56.153Z,64032.00
2022-08-11T07:47:56.126Z,64672.00
2022-08-11T07:48:56.111Z,67296.00
2022-08-11T07:49:56.100Z,66784.00
2022-08-11T07:50:56.334Z,65600.00
2022-08-11T07:51:57.114Z,65696.00
2022-08-11T07:52:56.072Z,64576.00
2022-08-11T07:53:58.737Z,64032.00
2022-08-11T07:54:57.080Z,65152.00
2022-08-11T07:55:56.052Z,64672.00
2022-08-11T07:57:09.234Z,62304.00
2022-08-11T07:58:14.498Z,60960.00
2022-08-11T07:59:03.412Z,60224.00
2022-08-11T08:00:00.266Z,57920.00
2022-08-11T08:00:57.012Z,56096.00
2022-08-11T08:01:56.015Z,58976.00
2022-08-11T08:02:56.014Z,60736.00
2022-08-11T08:03:55.972Z,59616.00
2022-08-11T08:04:55.987Z,58944.00
2022-08-11T08:05:55.975Z,58656.00
2022-08-11T08:06:55.955Z,59456.00
2022-08-11T08:07:55.972Z,58304.00
2022-08-11T08:08:55.941Z,56128.00
2022-08-11T08:09:55.938Z,57280.00
2022-08-11T08:10:55.932Z,56928.00
2022-08-11T08:11:55.909Z,55776.00
2022-08-11T08:12:55.922Z,55392.00
2022-08-11T08:13:55.898Z,55040.00
2022-08-11T08:14:55.885Z,53632.00
2022-08-11T08:15:55.890Z,52640.00
2022-08-11T08:16:55.874Z,52896.00
2022-08-11T08:18:09.217Z,51744.00
2022-08-11T08:18:55.841Z,51008.00
2022-08-11T08:19:55.837Z,51168.00
2022-08-11T08:20:55.858Z,51168.00
2022-08-11T08:21:55.846Z,49888.00
2022-08-11T08:22:56.834Z,47808.00
2022-08-11T08:23:56.503Z,45984.00
2022-08-11T08:24:55.790Z,47904.00
2022-08-11T08:25:55.787Z,47264.00
2022-08-11T08:26:55.800Z,46208.00
2022-08-11T08:27:55.765Z,46048.00
2022-08-11T08:28:55.765Z,43584.00
2022-08-11T08:29:55.749Z,40672.00
2022-08-11T08:30:55.799Z,32064.00
2022-08-11T08:31:55.754Z,24704.00
2022-08-11T08:32:55.714Z,23296.00
2022-08-11T08:33:55.945Z,23072.00
2022-08-11T08:34:56.705Z,22912.00
2022-08-11T08:35:56.247Z,22912.00
2022-08-11T08:36:55.694Z,23008.00
2022-08-11T08:37:56.176Z,23200.00
2022-08-11T08:38:55.697Z,23360.00
2022-08-11T08:39:55.707Z,23488.00
2022-08-11T08:40:56.573Z,23808.00
2022-08-11T08:41:55.648Z,24096.00
2022-08-11T08:42:55.645Z,24416.00
2022-08-11T08:43:57.762Z,24928.00
2022-08-11T08:44:56.618Z,27040.00
2022-08-11T08:45:55.629Z,32672.00
2022-08-11T08:46:55.624Z,42144.00
2022-08-11T08:47:55.596Z,45344.00
2022-08-11T08:48:55.596Z,39456.00
2022-08-11T08:49:55.600Z,33696.00
2022-08-11T08:50:55.565Z,32512.00
2022-08-11T08:52:19.406Z,30720.00
2022-08-11T08:52:56.565Z,28160.00
2022-08-11T08:53:58.402Z,27296.00
2022-08-11T08:54:55.568Z,27584.00
2022-08-11T08:55:55.529Z,27072.00
2022-08-11T08:56:55.519Z,26848.00
2022-08-11T08:57:55.518Z,25856.00
2022-08-11T08:58:55.545Z,23808.00
2022-08-11T08:59:55.504Z,25280.00
2022-08-11T09:00:55.528Z,26784.00
2022-08-11T09:01:55.502Z,25056.00
2022-08-11T09:02:55.502Z,23840.00
2022-08-11T09:04:05.413Z,23040.00
2022-08-11T09:04:56.479Z,23520.00
2022-08-11T09:05:55.471Z,24288.00
2022-08-11T09:06:55.454Z,24096.00
2022-08-11T09:07:55.432Z,23424.00
2022-08-11T09:08:55.436Z,24032.00
2022-08-11T09:09:55.397Z,23520.00
2022-08-11T09:10:55.402Z,23200.00
2022-08-11T09:11:55.417Z,23072.00
2022-08-11T09:12:55.381Z,22624.00
2022-08-11T09:14:04.819Z,23424.00
2022-08-11T09:14:55.370Z,24032.00
2022-08-11T09:15:56.508Z,24096.00
2022-08-11T09:16:56.364Z,23136.00
2022-08-11T09:17:55.327Z,22144.00
2022-08-11T09:18:55.335Z,22496.00
2022-08-11T09:19:56.731Z,22912.00
2022-08-11T09:21:00.210Z,22912.00
2022-08-11T09:21:56.298Z,23456.00
2022-08-11T09:23:24.224Z,23616.00
2022-08-11T09:24:21.892Z,23328.00
2022-08-11T09:24:57.288Z,23904.00
2022-08-11T09:25:55.286Z,24512.00
2022-08-11T09:26:55.262Z,24416.00
2022-08-11T09:27:55.252Z,24640.00
2022-08-11T09:28:55.238Z,24640.00
2022-08-11T09:29:55.220Z,25632.00
2022-08-11T09:30:55.222Z,28672.00
2022-08-11T09:31:55.235Z,29920.00
2022-08-11T09:32:55.179Z,29984.00
2022-08-11T09:33:55.246Z,31904.00
2022-08-11T09:34:55.181Z,32544.00
2022-08-11T09:35:55.170Z,33824.00
2022-08-11T09:36:55.186Z,38336.00
2022-08-11T09:37:56.411Z,38592.00
2022-08-11T09:38:56.145Z,32832.00
2022-08-11T09:39:55.208Z,26496.00
2022-08-11T09:40:56.330Z,23552.00
2022-08-11T09:42:01.184Z,21856.00
2022-08-11T09:42:56.181Z,20672.00
2022-08-11T09:43:55.098Z,20736.00
2022-08-11T09:44:55.113Z,20128.00
2022-08-11T09:45:55.080Z,19008.00
2022-08-11T09:46:56.123Z,18272.00
2022-08-11T09:47:55.071Z,17504.00
2022-08-11T09:48:55.090Z,17248.00
2022-08-11T09:49:55.072Z,16864.00
2022-08-11T09:50:55.032Z,16576.00
2022-08-11T09:52:05.107Z,16352.00
2022-08-11T09:53:35.212Z,16160.00
2022-08-11T09:54:03.511Z,15788.00
2022-08-11T09:54:55.030Z,15764.00
2022-08-11T09:55:54.996Z,15724.00
2022-08-11T09:56:54.965Z,15636.00
2022-08-11T09:57:55.973Z,14680.00
2022-08-11T09:58:54.974Z,15028.00
2022-08-11T10:00:12.383Z,15520.00
2022-08-11T10:00:55.026Z,15324.00
2022-08-11T10:01:54.990Z,15112.00
2022-08-11T10:02:54.934Z,14936.00
2022-08-11T10:03:54.946Z,14956.00
2022-08-11T10:04:54.934Z,14784.00
2022-08-11T10:05:54.909Z,14848.00
2022-08-11T10:06:55.387Z,14732.00
2022-08-11T10:07:54.906Z,14524.00
2022-08-11T10:08:54.865Z,14420.00
2022-08-11T10:09:54.862Z,14332.00
2022-08-11T10:10:54.849Z,14384.00
2022-08-11T10:11:57.993Z,14252.00
2022-08-11T10:12:54.859Z,14252.00
2022-08-11T10:14:33.682Z,14272.00
2022-08-11T10:14:54.837Z,14196.00
2022-08-11T10:15:59.846Z,14140.00
2022-08-11T10:16:55.801Z,14044.00
2022-08-11T10:17:54.782Z,13908.00
2022-08-11T10:18:54.778Z,13672.00
2022-08-11T10:20:05.435Z,13428.00
2022-08-11T10:20:54.758Z,13236.00
2022-08-11T10:21:54.742Z,13116.00
2022-08-11T10:22:54.759Z,13084.00
2022-08-11T10:24:01.437Z,13008.00
2022-08-11T10:24:54.767Z,12960.00
2022-08-11T10:25:54.697Z,12856.00
2022-08-11T10:26:55.002Z,12824.00
2022-08-11T10:28:17.443Z,12728.00
2022-08-11T10:29:10.033Z,12640.00
2022-08-11T10:29:56.703Z,12572.00
2022-08-11T10:30:54.689Z,12516.00
2022-08-11T10:31:57.704Z,12392.00
2022-08-11T10:32:58.549Z,12332.00
2022-08-11T10:33:59.041Z,12264.00
2022-08-11T10:34:56.357Z,12140.00
2022-08-11T10:35:54.652Z,12120.00
2022-08-11T10:36:54.614Z,12084.00
2022-08-11T10:38:07.890Z,12068.00
2022-08-11T10:38:55.601Z,12012.00
2022-08-11T10:39:54.683Z,11960.00
2022-08-11T10:40:54.566Z,11852.00
2022-08-11T10:42:03.461Z,11700.00
2022-08-11T10:42:58.244Z,11608.00
2022-08-11T10:44:02.849Z,11460.00
2022-08-11T10:44:54.563Z,11400.00
2022-08-11T10:45:54.562Z,11340.00
2022-08-11T10:46:54.528Z,11280.00
2022-08-11T10:47:54.508Z,11204.00
2022-08-11T10:48:54.490Z,11148.00
2022-08-11T10:49:54.493Z,11052.00
2022-08-11T10:50:54.499Z,11004.00
2022-08-11T10:51:54.507Z,10928.00
2022-08-11T10:52:54.467Z,10888.00
2022-08-11T10:53:54.448Z,10792.00
2022-08-11T10:54:54.452Z,10696.00
2022-08-11T10:55:54.452Z,10676.00
2022-08-11T10:56:54.440Z,10620.00
2022-08-11T10:58:04.749Z,10544.00
2022-08-11T10:58:55.398Z,10516.00
2022-08-11T10:59:54.382Z,10440.00
2022-08-11T11:00:54.408Z,10412.00
2022-08-11T11:01:54.384Z,10372.00
2022-08-11T11:03:22.229Z,10328.00
2022-08-11T11:03:55.349Z,10300.00
2022-08-11T11:04:54.352Z,10292.00
2022-08-11T11:06:28.937Z,10256.00
2022-08-11T11:06:55.323Z,10220.00
2022-08-11T11:07:54.325Z,10208.00
2022-08-11T11:08:57.589Z,10128.00
2022-08-11T11:09:54.297Z,10136.00
2022-08-11T11:10:54.282Z,10064.00
2022-08-11T11:11:54.256Z,10016.00
2022-08-11T11:12:55.287Z,9996.00
2022-08-11T11:13:55.062Z,9952.00
2022-08-11T11:14:58.778Z,9916.00
2022-08-11T11:15:56.234Z,9888.00
2022-08-11T11:16:54.219Z,9872.00
2022-08-11T11:17:54.236Z,9852.00
2022-08-11T11:19:01.221Z,9792.00
2022-08-11T11:19:54.185Z,9784.00
2022-08-11T11:20:54.179Z,9768.00
2022-08-11T11:21:54.158Z,9756.00
2022-08-11T11:22:54.162Z,9716.00
2022-08-11T11:23:54.173Z,9696.00
2022-08-11T11:24:54.157Z,9648.00
2022-08-11T11:25:57.121Z,9636.00
2022-08-11T11:26:55.123Z,9628.00
2022-08-11T11:27:54.110Z,9624.00
2022-08-11T11:28:54.114Z,9592.00
2022-08-11T11:29:55.095Z,9540.00
2022-08-11T11:30:54.081Z,9532.00
2022-08-11T11:31:54.093Z,9496.00
2022-08-11T11:32:54.063Z,9476.00
2022-08-11T11:34:06.407Z,9468.00
2022-08-11T11:34:55.070Z,9472.00
2022-08-11T11:35:54.036Z,9464.00
2022-08-11T11:36:54.075Z,9432.00
2022-08-11T11:38:03.610Z,9400.00
2022-08-11T11:38:55.035Z,9380.00
2022-08-11T11:39:54.142Z,9380.00
2022-08-11T11:40:53.991Z,9380.00
2022-08-11T11:41:53.975Z,9304.00
2022-08-11T11:42:53.992Z,9356.00
2022-08-11T11:43:53.962Z,9340.00
2022-08-11T11:44:55.983Z,9320.00
2022-08-11T11:45:54.964Z,9272.00
2022-08-11T11:46:54.083Z,9228.00
2022-08-11T11:47:54.029Z,9140.00
2022-08-11T11:48:53.909Z,9200.00
2022-08-11T11:49:53.900Z,9204.00
2022-08-11T11:50:58.140Z,9204.00
2022-08-11T11:51:53.944Z,9164.00
2022-08-11T11:52:53.861Z,9120.00
2022-08-11T11:53:53.858Z,8892.00
2022-08-11T11:54:53.959Z,9104.00
2022-08-11T11:55:53.866Z,9072.00
2022-08-11T11:56:53.837Z,8964.00
2022-08-11T11:57:58.630Z,8868.00
2022-08-11T11:58:54.818Z,9016.00
2022-08-11T11:59:53.839Z,8912.00
2022-08-11T12:00:53.793Z,8884.00
2022-08-11T12:01:53.801Z,9036.00
2022-08-11T12:02:53.802Z,9016.00
2022-08-11T12:03:53.872Z,8980.00
2022-08-11T12:04:53.821Z,8992.00
2022-08-11T12:05:53.752Z,9044.00
2022-08-11T12:06:53.731Z,9020.00
2022-08-11T12:08:05.191Z,9092.00
2022-08-11T12:08:53.758Z,9036.00
2022-08-11T12:09:53.718Z,9036.00
2022-08-11T12:10:53.728Z,8912.00
2022-08-11T12:11:53.691Z,8948.00
2022-08-11T12:12:53.682Z,8744.00
2022-08-11T12:13:53.736Z,9080.00